createdAt,value
2022-12-25T00:01:08.917Z,35.40
2022-12-25T00:03:12.295Z,31.93
2022-12-25T00:05:15.142Z,39.00
2022-12-25T00:07:17.902Z,32.90
2022-12-25T00:09:20.667Z,42.60
2022-12-25T00:11:24.708Z,37.93
2022-12-25T00:13:27.534Z,38.20
2022-12-25T00:15:30.405Z,36.20
2022-12-25T00:17:33.165Z,37.30
2022-12-25T00:19:35.878Z,41.67
2022-12-25T00:21:38.746Z,32.70
2022-12-25T00:23:42.055Z,50.10
2022-12-25T00:25:44.803Z,33.73
2022-12-25T00:27:51.342Z,37.13
2022-12-25T00:29:54.053Z,36.27
2022-12-25T00:31:56.929Z,39.87
2022-12-25T00:33:59.892Z,38.40
2022-12-25T00:36:03.180Z,34.07
2022-12-25T00:38:06.394Z,47.50
2022-12-25T00:40:10.422Z,36.40
2022-12-25T00:42:23.613Z,44.17
2022-12-25T00:44:28.020Z,34.50
2022-12-25T00:46:31.048Z,43.33
2022-12-25T00:48:34.562Z,37.20
2022-12-25T00:50:39.050Z,45.03
2022-12-25T00:52:41.853Z,39.43
2022-12-25T00:54:44.624Z,47.53
2022-12-25T00:56:47.562Z,43.63
2022-12-25T00:58:50.474Z,46.03
2022-12-25T01:00:54.753Z,44.43
2022-12-25T01:02:57.682Z,39.63
2022-12-25T01:05:00.504Z,40.93
2022-12-25T01:07:03.212Z,34.60
2022-12-25T01:09:24.179Z,32.90
2022-12-25T01:11:27.207Z,41.10
2022-12-25T01:13:30.918Z,39.03
2022-12-25T01:15:33.809Z,36.73
2022-12-25T01:17:38.128Z,42.83
2022-12-25T01:19:41.025Z,38.87
2022-12-25T01:21:43.808Z,39.03
2022-12-25T01:23:46.897Z,39.33
2022-12-25T01:25:49.725Z,37.87
2022-12-25T01:27:52.429Z,44.37
2022-12-25T01:29:55.157Z,37.43
2022-12-25T01:31:57.926Z,35.93
2022-12-25T01:34:02.051Z,37.50
2022-12-25T01:36:05.540Z,38.00
2022-12-25T01:38:12.121Z,30.27
2022-12-25T01:40:15.082Z,32.77
2022-12-25T01:42:18.933Z,40.53
2022-12-25T01:44:59.316Z,32.37
2022-12-25T01:47:02.201Z,40.30
2022-12-25T01:49:09.341Z,36.07
2022-12-25T01:51:21.554Z,32.67
2022-12-25T01:53:26.892Z,33.60
2022-12-25T01:55:30.675Z,33.67
2022-12-25T01:57:35.646Z,35.17
2022-12-25T01:59:38.534Z,41.23
2022-12-25T02:01:41.636Z,36.90
2022-12-25T02:03:44.620Z,37.83
2022-12-25T02:05:49.194Z,33.47
2022-12-25T02:07:52.972Z,31.00
2022-12-25T02:09:55.742Z,33.53
2022-12-25T02:11:58.783Z,28.40
2022-12-25T02:14:01.811Z,34.33
2022-12-25T02:16:10.801Z,34.60
2022-12-25T02:18:20.170Z,36.90
2022-12-25T02:20:41.942Z,30.83
2022-12-25T02:22:57.372Z,30.47
2022-12-25T02:25:09.360Z,33.77
2022-12-25T02:27:28.825Z,33.03
2022-12-25T02:29:40.331Z,26.90
2022-12-25T02:31:49.557Z,35.20
2022-12-25T02:34:04.651Z,38.13
2022-12-25T02:36:12.305Z,36.90
2022-12-25T02:38:19.509Z,25.87
2022-12-25T02:40:27.362Z,40.33
2022-12-25T02:42:55.376Z,37.27
2022-12-25T02:45:17.169Z,33.00
2022-12-25T02:47:49.685Z,30.30
2022-12-25T02:50:12.183Z,39.23
2022-12-25T02:52:40.644Z,41.23
2022-12-25T02:55:04.494Z,36.80
2022-12-25T02:57:29.522Z,29.23
2022-12-25T02:59:51.715Z,29.20
2022-12-25T03:02:14.909Z,35.87
2022-12-25T03:04:40.361Z,32.03
2022-12-25T03:06:57.250Z,33.70
2022-12-25T03:09:17.542Z,38.47
2022-12-25T03:11:32.827Z,37.90
2022-12-25T03:13:39.091Z,32.17
2022-12-25T03:15:59.725Z,31.33
2022-12-25T03:18:07.238Z,28.30
2022-12-25T03:20:28.815Z,35.33
2022-12-25T03:22:50.614Z,27.87
2022-12-25T03:25:10.956Z,33.60
2022-12-25T03:27:13.681Z,29.33
2022-12-25T03:29:36.514Z,40.63
2022-12-25T03:31:46.052Z,29.70
2022-12-25T03:34:20.659Z,26.67
2022-12-25T03:36:32.605Z,26.03
2022-12-25T03:39:08.177Z,28.50
2022-12-25T03:41:37.046Z,37.70
2022-12-25T03:44:05.120Z,35.23
2022-12-25T03:46:29.870Z,29.60
2022-12-25T03:48:54.092Z,28.70
2022-12-25T03:51:22.313Z,35.50
2022-12-25T03:53:46.454Z,32.73
2022-12-25T03:56:08.706Z,22.97
2022-12-25T03:58:36.480Z,26.77
2022-12-25T04:00:56.702Z,28.83
2022-12-25T04:03:17.270Z,31.80
2022-12-25T04:05:37.934Z,29.00
2022-12-25T04:07:59.634Z,28.27
2022-12-25T04:10:20.192Z,32.80
2022-12-25T04:12:40.645Z,26.03
2022-12-25T04:15:00.430Z,25.00
2022-12-25T04:17:21.041Z,27.23
2022-12-25T04:19:41.489Z,30.07
2022-12-25T04:22:01.978Z,30.20
2022-12-25T04:24:24.920Z,34.73
2022-12-25T04:26:45.422Z,30.37
2022-12-25T04:29:06.098Z,24.23
2022-12-25T04:31:26.935Z,26.13
2022-12-25T04:33:47.107Z,24.73
2022-12-25T04:36:08.223Z,28.93
2022-12-25T04:38:11.002Z,27.67
2022-12-25T04:40:15.423Z,32.43
2022-12-25T04:42:19.233Z,27.37
2022-12-25T04:44:21.991Z,23.73
2022-12-25T04:46:24.730Z,25.77
2022-12-25T04:48:28.726Z,29.27
2022-12-25T04:50:31.456Z,23.17
2022-12-25T04:52:37.003Z,28.13
2022-12-25T04:54:39.923Z,24.23
2022-12-25T04:56:46.048Z,21.87
2022-12-25T04:58:49.135Z,25.33
2022-12-25T05:00:51.931Z,26.23
2022-12-25T05:02:54.855Z,26.90
2022-12-25T05:04:57.855Z,25.47
2022-12-25T05:07:00.609Z,19.13
2022-12-25T05:09:03.428Z,21.10
2022-12-25T05:11:07.539Z,22.30
2022-12-25T05:13:11.617Z,25.57
2022-12-25T05:15:14.455Z,22.33
2022-12-25T05:17:17.284Z,25.73
2022-12-25T05:19:20.312Z,20.30
2022-12-25T05:21:23.180Z,18.27
2022-12-25T05:23:26.161Z,24.10
2022-12-25T05:25:28.932Z,22.87
2022-12-25T05:27:31.716Z,20.90
2022-12-25T05:29:36.053Z,29.10
2022-12-25T05:31:39.035Z,23.03
2022-12-25T05:33:42.887Z,26.10
2022-12-25T05:35:45.740Z,24.53
2022-12-25T05:37:48.477Z,23.00
2022-12-25T05:39:51.319Z,19.43
2022-12-25T05:41:54.031Z,24.87
2022-12-25T05:43:56.825Z,20.03
2022-12-25T05:46:05.791Z,22.00
2022-12-25T05:48:09.748Z,17.90
2022-12-25T05:50:12.711Z,18.87
2022-12-25T05:52:15.642Z,19.70
2022-12-25T05:54:18.436Z,17.60
2022-12-25T05:56:21.881Z,17.70
2022-12-25T05:58:24.605Z,23.53
2022-12-25T06:00:27.307Z,17.70
2022-12-25T06:02:31.897Z,19.67
2022-12-25T06:04:34.800Z,24.73
2022-12-25T06:06:37.586Z,17.60
2022-12-25T06:08:40.335Z,17.30
2022-12-25T06:10:43.338Z,19.17
2022-12-25T06:12:46.077Z,18.93
2022-12-25T06:14:48.793Z,16.93
2022-12-25T06:16:52.860Z,19.40
2022-12-25T06:18:57.277Z,15.73
2022-12-25T06:21:00.043Z,19.23
2022-12-25T06:23:03.099Z,16.17
2022-12-25T06:25:06.703Z,19.47
2022-12-25T06:27:09.872Z,17.20
2022-12-25T06:29:12.978Z,17.67
2022-12-25T06:31:18.408Z,19.90
2022-12-25T06:33:21.231Z,18.10
2022-12-25T06:35:25.542Z,18.57
2022-12-25T06:37:28.465Z,17.87
2022-12-25T06:39:31.974Z,21.43
2022-12-25T06:41:34.869Z,18.93
2022-12-25T06:43:37.967Z,20.37
2022-12-25T06:45:40.842Z,18.63
2022-12-25T06:47:43.576Z,22.40
2022-12-25T06:49:46.339Z,13.67
2022-12-25T06:51:50.434Z,18.47
2022-12-25T06:53:54.469Z,14.60
2022-12-25T06:56:03.862Z,16.17
2022-12-25T06:58:06.717Z,24.67
2022-12-25T07:00:10.731Z,15.17
2022-12-25T07:02:18.855Z,17.73
2022-12-25T07:04:28.541Z,13.33
2022-12-25T07:06:31.415Z,18.43
2022-12-25T07:08:35.631Z,17.87
2022-12-25T07:10:38.391Z,15.13
2022-12-25T07:12:41.109Z,18.87
2022-12-25T07:14:45.557Z,18.47
2022-12-25T07:16:48.326Z,18.27
2022-12-25T07:18:51.145Z,21.37
2022-12-25T07:20:55.551Z,15.13
2022-12-25T07:22:58.279Z,17.47
2022-12-25T07:25:02.421Z,20.57
2022-12-25T07:27:05.345Z,17.33
2022-12-25T07:29:08.122Z,17.47
2022-12-25T07:31:15.544Z,18.13
2022-12-25T07:33:18.697Z,13.27
2022-12-25T07:35:21.510Z,17.50
2022-12-25T07:37:24.376Z,17.00
2022-12-25T07:39:27.170Z,20.30
2022-12-25T07:41:31.491Z,17.90
2022-12-25T07:43:34.311Z,16.47
2022-12-25T07:45:37.231Z,16.33
2022-12-25T07:47:40.042Z,16.03
2022-12-25T07:49:42.751Z,20.27
2022-12-25T07:51:45.495Z,13.67
2022-12-25T07:53:48.240Z,12.07
2022-12-25T07:55:58.249Z,14.33
2022-12-25T07:58:02.492Z,16.07
2022-12-25T08:00:06.324Z,12.87
2022-12-25T08:02:11.358Z,13.97
2022-12-25T08:04:14.561Z,11.70
2022-12-25T08:06:17.411Z,11.00
2022-12-25T08:08:20.390Z,16.50
2022-12-25T08:10:23.786Z,14.10
2022-12-25T08:12:26.631Z,12.53
2022-12-25T08:14:30.714Z,13.50
2022-12-25T08:16:33.506Z,14.40
2022-12-25T08:18:37.337Z,15.00
2022-12-25T08:20:40.227Z,12.13
2022-12-25T08:22:43.019Z,11.77
2022-12-25T08:24:45.833Z,13.43
2022-12-25T08:26:49.034Z,10.67
2022-12-25T08:28:52.221Z,10.43
2022-12-25T08:30:56.660Z,10.47
2022-12-25T08:32:59.439Z,16.00
2022-12-25T08:35:02.232Z,13.83
2022-12-25T08:37:05.381Z,10.73
2022-12-25T08:39:08.336Z,11.10
2022-12-25T08:41:25.289Z,11.93
2022-12-25T08:43:28.324Z,9.30
2022-12-25T08:45:35.243Z,13.97
2022-12-25T08:47:39.910Z,8.97
2022-12-25T08:49:42.977Z,9.33
2022-12-25T08:51:46.670Z,10.93
2022-12-25T08:53:50.971Z,13.13
2022-12-25T08:55:58.923Z,13.70
2022-12-25T08:58:02.177Z,11.00
2022-12-25T09:00:05.934Z,10.60
2022-12-25T09:02:10.611Z,11.03
2022-12-25T09:04:15.243Z,12.97
2022-12-25T09:06:18.205Z,9.70
2022-12-25T09:08:22.001Z,7.97
2022-12-25T09:10:24.877Z,10.23
2022-12-25T09:12:27.631Z,10.63
2022-12-25T09:14:31.788Z,8.77
2022-12-25T09:16:34.571Z,8.47
2022-12-25T09:18:37.515Z,9.83
2022-12-25T09:20:41.612Z,11.37
2022-12-25T09:22:44.424Z,12.13
2022-12-25T09:24:47.284Z,10.63
2022-12-25T09:26:50.224Z,11.93
2022-12-25T09:28:53.045Z,11.90
2022-12-25T09:30:56.560Z,11.17
2022-12-25T09:33:00.599Z,10.93
2022-12-25T09:35:03.516Z,10.47
2022-12-25T09:37:07.653Z,9.73
2022-12-25T09:39:10.617Z,10.83
2022-12-25T09:41:18.242Z,11.00
2022-12-25T09:43:22.225Z,9.97
2022-12-25T09:45:29.969Z,13.03
2022-12-25T09:47:36.071Z,10.80
2022-12-25T09:49:44.257Z,10.50
2022-12-25T09:51:50.249Z,11.97
2022-12-25T09:54:01.810Z,11.50
2022-12-25T09:56:09.868Z,11.73
2022-12-25T09:58:13.841Z,9.83
2022-12-25T10:00:20.520Z,12.03
2022-12-25T10:02:59.259Z,8.63
2022-12-25T10:05:29.660Z,14.97
2022-12-25T10:07:44.423Z,8.47
2022-12-25T10:10:07.298Z,10.47
2022-12-25T10:12:26.961Z,11.30
2022-12-25T10:14:39.596Z,8.83
2022-12-25T10:16:49.830Z,9.77
2022-12-25T10:19:06.179Z,13.50
2022-12-25T10:21:13.554Z,18.37
2022-12-25T10:23:20.717Z,12.67
2022-12-25T10:25:26.490Z,12.40
2022-12-25T10:27:33.704Z,11.77
2022-12-25T10:29:38.423Z,10.70
2022-12-25T10:31:42.637Z,8.13
2022-12-25T10:33:45.377Z,8.87
2022-12-25T10:35:48.249Z,10.63
2022-12-25T10:37:59.570Z,9.83
2022-12-25T10:40:02.539Z,10.07
2022-12-25T10:42:39.796Z,9.47
2022-12-25T10:44:54.382Z,11.30
2022-12-25T10:46:58.850Z,9.27
2022-12-25T10:49:04.628Z,11.47
2022-12-25T10:51:08.184Z,13.47
2022-12-25T10:53:20.383Z,13.40
2022-12-25T10:55:28.394Z,8.27
2022-12-25T10:57:32.061Z,12.77
2022-12-25T10:59:43.585Z,8.93
2022-12-25T11:01:48.903Z,11.87
2022-12-25T11:03:54.028Z,9.57
2022-12-25T11:05:56.878Z,12.17
2022-12-25T11:08:01.805Z,10.70
2022-12-25T11:10:16.037Z,11.50
2022-12-25T11:12:20.140Z,9.83
2022-12-25T11:14:23.634Z,12.63
2022-12-25T11:16:30.709Z,9.00
2022-12-25T11:18:44.287Z,8.93
2022-12-25T11:20:51.964Z,8.50
2022-12-25T11:22:54.816Z,7.50
2022-12-25T11:24:57.687Z,8.10
2022-12-25T11:27:02.274Z,10.17
2022-12-25T11:29:15.209Z,7.77
2022-12-25T11:31:21.384Z,10.53
2022-12-25T11:33:31.395Z,9.70
2022-12-25T11:35:45.781Z,11.40
2022-12-25T11:37:50.499Z,9.07
2022-12-25T11:39:53.280Z,9.13
2022-12-25T11:42:00.270Z,11.70
2022-12-25T11:44:08.032Z,10.10
2022-12-25T11:46:18.106Z,8.23
2022-12-25T11:48:27.173Z,8.37
2022-12-25T11:50:34.262Z,9.83
2022-12-25T11:52:39.652Z,8.47
2022-12-25T11:54:51.071Z,10.20
2022-12-25T11:56:54.266Z,6.70
2022-12-25T11:59:01.935Z,7.63
2022-12-25T12:01:08.491Z,7.77
2022-12-25T12:03:19.266Z,8.57
2022-12-25T12:05:30.289Z,7.77
2022-12-25T12:07:36.652Z,7.40
2022-12-25T12:09:48.543Z,7.07
2022-12-25T12:11:59.537Z,7.70
2022-12-25T12:14:12.875Z,5.80
2022-12-25T12:16:16.054Z,9.80
2022-12-25T12:18:22.986Z,6.57
2022-12-25T12:20:32.929Z,8.17
2022-12-25T12:22:36.933Z,7.63
2022-12-25T12:24:42.666Z,6.60
2022-12-25T12:26:48.403Z,9.57
2022-12-25T12:28:53.151Z,7.93
2022-12-25T12:31:01.369Z,7.43
2022-12-25T12:33:10.141Z,8.27
2022-12-25T12:35:18.364Z,7.33
2022-12-25T12:37:28.167Z,10.13
2022-12-25T12:40:00.591Z,8.13
2022-12-25T12:42:01.431Z,7.70
2022-12-25T12:44:07.632Z,7.87
2022-12-25T12:46:21.575Z,8.17
2022-12-25T12:48:29.100Z,6.67
2022-12-25T12:50:37.229Z,8.73
2022-12-25T12:52:42.588Z,11.07
2022-12-25T12:54:57.389Z,9.13
2022-12-25T12:57:01.813Z,7.70
2022-12-25T12:59:04.854Z,8.37
2022-12-25T13:01:20.371Z,8.90
2022-12-25T13:03:35.344Z,10.00
2022-12-25T13:05:42.325Z,10.77
2022-12-25T13:07:56.556Z,8.00
2022-12-25T13:10:10.720Z,7.90
2022-12-25T13:12:14.949Z,8.93
2022-12-25T13:14:21.432Z,9.07
2022-12-25T13:16:28.059Z,8.00
2022-12-25T13:18:31.665Z,7.40
2022-12-25T13:20:46.470Z,8.70
2022-12-25T13:22:53.125Z,9.07
2022-12-25T13:24:58.226Z,8.20
2022-12-25T13:27:01.830Z,9.20
2022-12-25T13:29:11.318Z,9.30
2022-12-25T13:31:19.439Z,11.00
2022-12-25T13:33:23.302Z,7.73
2022-12-25T13:35:26.353Z,9.30
2022-12-25T13:37:32.043Z,8.87
2022-12-25T13:39:37.656Z,6.80
2022-12-25T13:42:02.502Z,8.30
2022-12-25T13:44:12.749Z,8.67
2022-12-25T13:46:16.592Z,7.60
2022-12-25T13:48:20.701Z,8.43
2022-12-25T13:50:26.453Z,9.43
2022-12-25T13:52:33.711Z,9.03
2022-12-25T13:54:37.773Z,6.90
2022-12-25T13:56:48.862Z,7.03
2022-12-25T13:58:51.638Z,7.30
2022-12-25T14:00:56.864Z,7.63
2022-12-25T14:03:00.824Z,8.57
2022-12-25T14:05:04.061Z,7.10
2022-12-25T14:07:11.692Z,9.20
2022-12-25T14:09:15.299Z,9.23
2022-12-25T14:11:22.413Z,10.40
2022-12-25T14:13:28.488Z,8.43
2022-12-25T14:15:33.128Z,7.70
2022-12-25T14:17:35.944Z,9.73
2022-12-25T14:19:38.675Z,9.37
2022-12-25T14:21:49.105Z,7.87
2022-12-25T14:23:52.106Z,8.37
2022-12-25T14:25:54.963Z,12.70
2022-12-25T14:27:59.684Z,10.23
2022-12-25T14:30:02.482Z,8.70
2022-12-25T14:32:07.276Z,9.33
2022-12-25T14:34:18.118Z,9.73
2022-12-25T14:36:21.251Z,10.17
2022-12-25T14:38:27.299Z,10.40
2022-12-25T14:40:32.642Z,9.63
2022-12-25T14:42:35.928Z,10.50
2022-12-25T14:44:41.674Z,11.93
2022-12-25T14:46:44.504Z,10.83
2022-12-25T14:48:47.280Z,13.33
2022-12-25T14:50:57.656Z,12.37
2022-12-25T14:53:00.709Z,13.13
2022-12-25T14:55:07.621Z,11.23
2022-12-25T14:57:19.214Z,13.53
2022-12-25T14:59:26.012Z,16.00
2022-12-25T15:01:33.500Z,13.20
2022-12-25T15:03:37.709Z,13.43
2022-12-25T15:05:41.057Z,11.13
2022-12-25T15:07:43.948Z,10.43
2022-12-25T15:09:46.817Z,12.17
2022-12-25T15:11:50.085Z,11.00
2022-12-25T15:13:52.794Z,15.63
2022-12-25T15:15:59.768Z,12.93
2022-12-25T15:18:05.379Z,12.57
2022-12-25T15:20:11.397Z,11.57
2022-12-25T15:22:14.370Z,13.87
2022-12-25T15:24:18.193Z,13.77
2022-12-25T15:26:21.180Z,11.70
2022-12-25T15:28:23.904Z,10.87
2022-12-25T15:30:26.700Z,11.23
2022-12-25T15:32:29.396Z,10.30
2022-12-25T15:34:33.457Z,11.13
2022-12-25T15:36:36.179Z,12.77
2022-12-25T15:38:39.262Z,10.93
2022-12-25T15:40:42.965Z,11.70
2022-12-25T15:42:48.856Z,10.90
2022-12-25T15:44:52.396Z,12.40
2022-12-25T15:46:55.392Z,11.03
2022-12-25T15:48:58.274Z,12.57
2022-12-25T15:51:03.178Z,13.83
2022-12-25T15:53:05.950Z,12.37
2022-12-25T15:55:09.719Z,12.53
2022-12-25T15:57:18.897Z,10.00
2022-12-25T15:59:22.465Z,10.53
2022-12-25T16:01:25.240Z,9.77
2022-12-25T16:03:28.128Z,10.07
2022-12-25T16:05:30.999Z,9.80
2022-12-25T16:07:36.104Z,8.00
2022-12-25T16:09:38.872Z,8.40
2022-12-25T16:11:43.011Z,10.03
2022-12-25T16:13:46.865Z,7.97
2022-12-25T16:15:49.746Z,9.23
2022-12-25T16:17:52.461Z,7.67
2022-12-25T16:19:55.441Z,7.90
2022-12-25T16:21:58.217Z,8.70
2022-12-25T16:24:02.283Z,10.37
2022-12-25T16:26:05.219Z,8.17
2022-12-25T16:28:10.149Z,8.60
2022-12-25T16:30:15.426Z,9.43
2022-12-25T16:32:20.776Z,9.00
2022-12-25T16:34:23.525Z,8.57
2022-12-25T16:36:27.134Z,8.63
2022-12-25T16:38:31.538Z,10.73
2022-12-25T16:40:35.943Z,9.40
2022-12-25T16:42:39.133Z,14.10
2022-12-25T16:44:42.008Z,10.00
2022-12-25T16:46:44.793Z,12.57
2022-12-25T16:48:47.659Z,9.60
2022-12-25T16:50:50.413Z,14.20
2022-12-25T16:52:53.105Z,12.30
2022-12-25T16:54:55.845Z,11.57
2022-12-25T16:57:00.361Z,14.07
2022-12-25T16:59:03.819Z,12.40
2022-12-25T17:01:08.279Z,9.33
2022-12-25T17:03:11.170Z,9.13
2022-12-25T17:05:14.057Z,10.30
2022-12-25T17:07:18.445Z,10.40
2022-12-25T17:09:21.240Z,10.17
2022-12-25T17:11:27.161Z,9.90
2022-12-25T17:13:31.575Z,9.93
2022-12-25T17:15:34.599Z,10.53
2022-12-25T17:17:37.366Z,9.37
2022-12-25T17:19:40.105Z,9.50
2022-12-25T17:21:42.838Z,11.47
2022-12-25T17:23:45.787Z,9.53
2022-12-25T17:25:48.519Z,10.43
2022-12-25T17:27:51.384Z,9.50
2022-12-25T17:29:55.452Z,10.60
2022-12-25T17:31:58.284Z,10.30
2022-12-25T17:34:03.657Z,9.13
2022-12-25T17:36:09.628Z,11.27
2022-12-25T17:38:12.356Z,9.93
2022-12-25T17:40:15.440Z,9.67
2022-12-25T17:42:18.424Z,9.43
2022-12-25T17:44:22.070Z,9.50
2022-12-25T17:46:28.116Z,9.70
2022-12-25T17:48:30.983Z,8.97
2022-12-25T17:50:39.311Z,11.90
2022-12-25T17:52:44.128Z,10.63
2022-12-25T17:54:46.810Z,11.20
2022-12-25T17:56:50.567Z,9.80
2022-12-25T17:58:54.990Z,9.63
2022-12-25T18:00:58.044Z,9.50
2022-12-25T18:03:10.570Z,10.53
2022-12-25T18:05:14.172Z,11.87
2022-12-25T18:07:17.633Z,9.10
2022-12-25T18:09:20.511Z,9.63
2022-12-25T18:11:27.462Z,9.40
2022-12-25T18:13:30.375Z,10.17
2022-12-25T18:15:33.238Z,9.37
2022-12-25T18:17:36.181Z,10.00
2022-12-25T18:19:40.306Z,9.93
2022-12-25T18:21:43.063Z,10.50
2022-12-25T18:23:46.414Z,11.40
2022-12-25T18:25:49.284Z,10.90
2022-12-25T18:27:52.140Z,11.57
2022-12-25T18:29:54.900Z,10.80
2022-12-25T18:31:57.700Z,10.77
2022-12-25T18:34:00.889Z,11.00
2022-12-25T18:36:05.695Z,13.17
2022-12-25T18:38:09.635Z,11.23
2022-12-25T18:40:12.625Z,12.43
2022-12-25T18:42:47.697Z,10.70
2022-12-25T18:44:50.453Z,11.70
2022-12-25T18:46:53.207Z,12.23
2022-12-25T18:48:57.075Z,11.73
2022-12-25T18:51:01.462Z,11.53
2022-12-25T18:53:06.409Z,13.07
2022-12-25T18:55:10.461Z,11.47
2022-12-25T18:57:13.238Z,13.33
2022-12-25T18:59:15.964Z,13.30
2022-12-25T19:01:21.474Z,11.53
2022-12-25T19:03:24.536Z,12.83
2022-12-25T19:05:27.340Z,11.17
2022-12-25T19:07:30.107Z,11.83
2022-12-25T19:09:34.219Z,14.63
2022-12-25T19:11:41.992Z,13.07
2022-12-25T19:13:48.905Z,11.90
2022-12-25T19:15:51.639Z,13.30
2022-12-25T19:17:54.392Z,13.60
2022-12-25T19:19:57.113Z,12.50
2022-12-25T19:21:59.835Z,13.07
2022-12-25T19:24:02.862Z,13.33
2022-12-25T19:26:07.801Z,12.93
2022-12-25T19:28:10.511Z,12.33
2022-12-25T19:30:14.358Z,13.27
2022-12-25T19:32:17.242Z,12.23
2022-12-25T19:34:19.976Z,11.83
2022-12-25T19:36:22.686Z,11.57
2022-12-25T19:38:25.520Z,11.53
2022-12-25T19:40:28.228Z,11.07
2022-12-25T19:42:32.450Z,12.80
2022-12-25T19:44:35.233Z,12.17
2022-12-25T19:46:40.345Z,11.33
2022-12-25T19:48:43.223Z,12.03
2022-12-25T19:50:45.967Z,11.20
2022-12-25T19:52:49.035Z,12.30
2022-12-25T19:54:52.515Z,11.43
2022-12-25T19:56:55.293Z,12.43
2022-12-25T19:58:59.883Z,11.77
2022-12-25T20:01:04.942Z,13.67
2022-12-25T20:03:08.062Z,14.93
2022-12-25T20:05:11.238Z,11.93
2022-12-25T20:07:14.041Z,12.00
2022-12-25T20:09:21.199Z,11.37
2022-12-25T20:11:26.870Z,12.77
2022-12-25T20:13:29.574Z,11.37
2022-12-25T20:15:33.632Z,11.03
2022-12-25T20:17:36.326Z,11.30
2022-12-25T20:19:39.125Z,10.80
2022-12-25T20:21:42.049Z,11.17
2022-12-25T20:23:45.812Z,12.63
2022-12-25T20:25:48.705Z,14.50
2022-12-25T20:27:51.454Z,11.67
2022-12-25T20:29:54.157Z,11.30
2022-12-25T20:31:58.489Z,11.27
2022-12-25T20:34:04.933Z,13.53
2022-12-25T20:36:08.565Z,11.37
2022-12-25T20:38:11.279Z,11.17
2022-12-25T20:40:14.245Z,12.37
2022-12-25T20:42:16.992Z,10.57
2022-12-25T20:44:19.809Z,12.13
2022-12-25T20:46:22.657Z,12.57
2022-12-25T20:48:26.931Z,12.27
2022-12-25T20:50:29.639Z,10.80
2022-12-25T20:52:32.402Z,10.47
2022-12-25T20:54:35.269Z,9.40
2022-12-25T20:56:38.552Z,10.48
2022-12-25T20:58:41.744Z,11.63
2022-12-25T21:00:46.106Z,8.97
2022-12-25T21:02:49.287Z,9.90
2022-12-25T21:04:54.366Z,9.70
2022-12-25T21:06:57.265Z,10.10
2022-12-25T21:09:00.011Z,12.67
2022-12-25T21:11:04.142Z,8.63
2022-12-25T21:13:06.889Z,11.07
2022-12-25T21:15:15.122Z,9.20
2022-12-25T21:17:18.578Z,9.33
2022-12-25T21:19:21.384Z,9.80
2022-12-25T21:21:25.740Z,8.40
2022-12-25T21:23:30.148Z,7.90
2022-12-25T21:25:32.874Z,8.80
2022-12-25T21:27:35.618Z,9.87
2022-12-25T21:29:38.529Z,8.67
2022-12-25T21:31:55.465Z,9.43
2022-12-25T21:33:59.300Z,8.47
2022-12-25T21:36:07.022Z,10.00
2022-12-25T21:38:11.139Z,8.33
2022-12-25T21:40:16.497Z,9.77
2022-12-25T21:42:19.462Z,8.30
2022-12-25T21:44:22.192Z,8.60
2022-12-25T21:46:25.861Z,7.83
2022-12-25T21:48:28.744Z,7.33
2022-12-25T21:50:49.539Z,8.10
2022-12-25T21:52:52.244Z,7.20
2022-12-25T21:54:56.641Z,6.63
2022-12-25T21:56:59.409Z,6.60
2022-12-25T21:59:03.219Z,6.30
2022-12-25T22:01:06.449Z,6.93
2022-12-25T22:03:09.251Z,7.10
2022-12-25T22:05:32.396Z,9.73
2022-12-25T22:07:34.240Z,7.03
2022-12-25T22:09:37.320Z,5.97
2022-12-25T22:11:58.752Z,6.10
2022-12-25T22:14:18.719Z,6.00
2022-12-25T22:16:58.952Z,6.20
2022-12-25T22:19:19.412Z,7.63
2022-12-25T22:21:22.489Z,6.87
2022-12-25T22:23:25.299Z,6.97
2022-12-25T22:25:28.161Z,6.53
2022-12-25T22:27:34.206Z,6.40
2022-12-25T22:29:37.240Z,7.57
2022-12-25T22:31:46.409Z,6.73
2022-12-25T22:33:49.844Z,7.03
2022-12-25T22:36:02.208Z,6.70
2022-12-25T22:38:05.045Z,6.70
2022-12-25T22:40:09.889Z,7.07
2022-12-25T22:42:13.178Z,6.37
2022-12-25T22:44:18.267Z,6.13
2022-12-25T22:46:21.360Z,8.63
2022-12-25T22:48:24.218Z,5.53
2022-12-25T22:50:27.010Z,6.17
2022-12-25T22:52:29.982Z,6.17
2022-12-25T22:54:33.225Z,6.43
2022-12-25T22:56:36.112Z,6.87
2022-12-25T22:58:38.992Z,8.30
2022-12-25T23:00:46.399Z,6.67
2022-12-25T23:02:49.728Z,7.00
2022-12-25T23:04:52.585Z,6.27
2022-12-25T23:06:55.387Z,6.07
2022-12-25T23:08:58.349Z,7.40
2022-12-25T23:11:02.631Z,5.93
2022-12-25T23:13:23.122Z,7.38
2022-12-25T23:15:27.470Z,7.40
2022-12-25T23:17:49.291Z,9.27
2022-12-25T23:20:09.561Z,7.13
2022-12-25T23:22:30.667Z,5.80
2022-12-25T23:24:51.041Z,8.77
2022-12-25T23:26:53.800Z,6.43
2022-12-25T23:29:14.393Z,6.87
2022-12-25T23:31:17.528Z,6.43
2022-12-25T23:33:21.673Z,5.67
2022-12-25T23:35:24.428Z,6.57
2022-12-25T23:37:27.197Z,6.40
2022-12-25T23:39:29.953Z,5.43
2022-12-25T23:41:32.863Z,5.78
2022-12-25T23:43:37.906Z,5.93
2022-12-25T23:45:40.694Z,6.20
2022-12-25T23:47:43.563Z,6.47
2022-12-25T23:49:49.494Z,6.00
2022-12-25T23:51:52.940Z,8.53
2022-12-25T23:53:55.811Z,7.03
2022-12-25T23:55:58.616Z,6.47
2022-12-25T23:58:01.350Z,6.07
